CJR2 weather

Luseland Airport
Luseland, Saskatchewan, Canada

Public forecast

Using degrees Celsius for public forecast. Weather courtesy of forecast.io.

Closest aviation weather report (METAR) to Luseland Airport

Closest report is Kindersley Airport, 33.9 nm (62.9 km) SSE. Retrieved 2020/06/04 10:00 UTC (28 minutes ago):

CYKY 041000Z 27012G19KT 15SM FEW080 06/03 A2983 RMK AC1 AC TR SLP110

Closest aviation forecast (TAF) to Luseland Airport

Closest forecast is North Battleford Airport, 58.9 nm (109.2 km) NE. Retrieved 2020/06/04 06:42 UTC (4 hours ago):

TAF CYQW 040538Z 0406/0418 29020G30KT P6SM SCT020 OVC040 TEMPO 0406/0415 OVC020 BECMG 0407/0409 30015G25KT FM041500 29015G25KT P6SM BKN040 RMK FCST BASED ON AUTO OBS NXT FCST BY 041200Z